Midland, MI (48640)

8:35 AM EDT on September 05, 2015 (GMT -0400)
Midland Northwest | | Change Station
CLOSE
Current Station
Personal Weather Station
Location: Midland, MI
Elevation: 636 ft
Nearby Weather Stations
Active Advisory: Dense Fog Advisory Active Notice: Local Storm Report

Elev 636 ft 43.65 °N, 84.28 °W | Updated 12 seconds ago

Fog
Fog
67.5 °F
Feels Like 67.5 °F
N
0.0
Wind Variable Wind from WSW
Gusts 0.0 mph

Today
High -- | Low -- °F
--% Chance of Precip.
Yesterday
High -- | Low -- °F
Precip. -- in
7:04 AM 8:05 PM
Waning Gibbous, 49% visible
Pressure 30.10 in
Visibility 0.2 miles
Clouds Overcast 200 ft
Dew Point 67 °F
Humidity 99%
Rainfall 0.00 in
Snow Depth Not available.
UV 1.0 out of 12
Pollen 9.30 out of 12
Air Quality Not available.
Flu Activity Not available.
METAR KIKW 051212Z AUTO 00000KT M1/4SM FG OVC002 19/19 A3010 RMK AO2 T01920190
Pressure 30.10 in
Visibility 0.2 miles
Clouds Overcast 200 ft
Dew Point 67 °F
Humidity 99%
Rainfall 0.00 in
Snow Depth Not available.
UV 1.0 out of 12
Pollen 9.30 out of 12
Air Quality Not available.
Flu Activity Not available.
METAR KIKW 051212Z AUTO 00000KT M1/4SM FG OVC002 19/19 A3010 RMK AO2 T01920190

10-Day Weather Forecast

×

Almanac

Astronomy

Sep. 05, 2015 Rise Set
Actual Time
Civil Twilight
Nautical Twilight
Astronomical Twilight
Moon
Length of Visible Light
Length of Day
Tomorrow will be .
, % of the Moon is Illuminated

Today's Extremes

State Highs State Lows

Community

WunderPhotos

Upload Photos

1,852,454 photos uploaded!

WunderBlogs® & News

Nearby

Air Quality

  Air Quality AQ Index Pollutant
Not available.

Snow Depth

Station Depth Elevation

Earthquake Activity

City Distance Mag. Time & Date
Minimum magnitude displayed is 2.5.

Coastal Water Temperatures

Place Temperature

Stations

Nearby Weather Stations

Station Location Temp. Windchill Dew Point Humidity Wind Precip. Elev Updated Type
                   
Dense Fog Advisory
Statement as of 6:38 AM EDT on September 05, 2015

... Dense fog advisory in effect until 10 am EDT this morning...

The National Weather Service in Detroit/Pontiac has issued a
dense fog advisory... which is in effect until 10 am EDT this
morning.

Hazardous weather...

* visibility has consistently remained near zero this morning

* gradual improvement of visibility expected after sunrise


Impacts...

* visibility between zero and one quarter of a mile will make
   driving hazardous


Precautionary/preparedness actions...

* a dense fog advisory means visibilities will frequently be
reduced to less than one quarter mile. If driving... slow down...
use your headlights... and leave plenty of distance ahead of you.


* Prepare... plan... and stay informed. Visit
   http://go.USA.Gov/rr8



Jvc